createdAt,value
2023-04-15T00:00:54.763Z,75.20
2023-04-15T00:02:48.602Z,75.13
2023-04-15T00:04:41.657Z,75.27
2023-04-15T00:06:34.528Z,75.21
2023-04-15T00:08:27.682Z,75.26
2023-04-15T00:10:20.529Z,75.19
2023-04-15T00:12:13.378Z,75.29
2023-04-15T00:14:07.552Z,75.26
2023-04-15T00:16:00.962Z,75.32
2023-04-15T00:17:53.869Z,75.34
2023-04-15T00:19:46.702Z,75.60
2023-04-15T00:21:39.549Z,75.47
2023-04-15T00:23:32.353Z,75.32
2023-04-15T00:25:25.140Z,75.46
2023-04-15T00:27:17.996Z,75.58
2023-04-15T00:29:10.931Z,75.47
2023-04-15T00:31:04.541Z,75.62
2023-04-15T00:32:57.552Z,75.34
2023-04-15T00:34:50.904Z,75.45
2023-04-15T00:36:44.874Z,75.38
2023-04-15T00:38:38.644Z,75.57
2023-04-15T00:40:31.590Z,75.47
2023-04-15T00:42:25.662Z,75.61
2023-04-15T00:44:19.236Z,75.62
2023-04-15T00:46:15.952Z,75.79
2023-04-15T00:48:09.629Z,75.89
2023-04-15T00:50:02.482Z,75.63
2023-04-15T00:51:55.728Z,76.16
2023-04-15T00:53:51.952Z,75.97
2023-04-15T00:55:45.315Z,76.03
2023-04-15T00:57:39.601Z,76.26
2023-04-15T00:59:34.178Z,76.26
2023-04-15T01:01:27.463Z,76.33
2023-04-15T01:03:22.294Z,76.35
2023-04-15T01:05:18.735Z,76.25
2023-04-15T01:07:11.622Z,76.29
2023-04-15T01:09:04.759Z,76.55
2023-04-15T01:11:00.057Z,76.44
2023-04-15T01:12:53.212Z,76.32
2023-04-15T01:14:46.676Z,76.42
2023-04-15T01:16:40.031Z,76.48
2023-04-15T01:18:33.595Z,76.57
2023-04-15T01:20:27.620Z,76.55
2023-04-15T01:22:21.227Z,76.58
2023-04-15T01:24:18.682Z,76.66
2023-04-15T01:26:12.232Z,76.78
2023-04-15T01:28:05.192Z,76.72
2023-04-15T01:29:58.653Z,76.77
2023-04-15T01:31:53.344Z,76.89
2023-04-15T01:33:47.219Z,76.99
2023-04-15T01:35:41.289Z,77.02
2023-04-15T01:37:34.761Z,76.92
2023-04-15T01:39:27.593Z,76.85
2023-04-15T01:41:29.437Z,77.07
2023-04-15T01:43:22.312Z,77.11
2023-04-15T01:45:15.662Z,77.23
2023-04-15T01:47:08.706Z,77.10
2023-04-15T01:49:01.838Z,77.16
2023-04-15T01:50:57.367Z,77.27
2023-04-15T01:52:50.216Z,77.26
2023-04-15T01:54:44.387Z,77.37
2023-04-15T01:56:39.194Z,77.39
2023-04-15T01:58:32.234Z,77.35
2023-04-15T02:00:25.101Z,77.54
2023-04-15T02:02:18.368Z,77.56
2023-04-15T02:04:16.820Z,77.49
2023-04-15T02:06:09.659Z,77.64
2023-04-15T02:08:02.711Z,77.71
2023-04-15T02:09:55.657Z,77.58
2023-04-15T02:11:48.931Z,77.68
2023-04-15T02:13:41.877Z,77.82
2023-04-15T02:15:34.729Z,77.72
2023-04-15T02:17:27.696Z,77.61
2023-04-15T02:19:20.606Z,77.73
2023-04-15T02:21:14.066Z,77.90
2023-04-15T02:23:07.834Z,77.70
2023-04-15T02:25:01.519Z,77.73
2023-04-15T02:26:54.655Z,77.89
2023-04-15T02:28:49.133Z,77.83
2023-04-15T02:30:42.090Z,77.67
2023-04-15T02:32:35.225Z,77.74
2023-04-15T02:34:28.189Z,77.94
2023-04-15T02:36:24.101Z,78.08
2023-04-15T02:38:18.087Z,78.08
2023-04-15T02:40:15.015Z,77.86
2023-04-15T02:42:07.863Z,78.05
2023-04-15T02:44:00.891Z,78.12
2023-04-15T02:45:54.536Z,78.06
2023-04-15T02:47:47.767Z,78.05
2023-04-15T02:49:41.085Z,78.22
2023-04-15T02:51:33.933Z,78.03
2023-04-15T02:53:26.989Z,78.11
2023-04-15T02:55:19.929Z,78.17
2023-04-15T02:57:13.085Z,78.10
2023-04-15T02:59:06.236Z,78.43
2023-04-15T03:00:59.130Z,78.88
2023-04-15T03:02:56.803Z,79.06
2023-04-15T03:04:49.794Z,79.45
2023-04-15T03:06:42.744Z,79.99
2023-04-15T03:08:35.704Z,80.24
2023-04-15T03:10:28.623Z,80.83
2023-04-15T03:12:21.685Z,80.88
2023-04-15T03:14:15.756Z,81.34
2023-04-15T03:16:11.511Z,81.64
2023-04-15T03:18:04.728Z,82.04
2023-04-15T03:19:57.717Z,82.14
2023-04-15T03:21:50.829Z,82.45
2023-04-15T03:23:43.679Z,82.82
2023-04-15T03:25:37.549Z,82.88
2023-04-15T03:27:31.208Z,82.94
2023-04-15T03:29:26.112Z,83.47
2023-04-15T03:31:18.937Z,83.39
2023-04-15T03:33:12.500Z,83.78
2023-04-15T03:35:06.493Z,84.04
2023-04-15T03:36:59.636Z,84.35
2023-04-15T03:38:53.112Z,84.63
2023-04-15T03:40:47.172Z,84.94
2023-04-15T03:42:40.344Z,85.00
2023-04-15T03:44:33.274Z,85.22
2023-04-15T03:46:26.856Z,85.77
2023-04-15T03:48:19.833Z,86.00
2023-04-15T03:50:12.941Z,85.78
2023-04-15T03:52:06.298Z,85.94
2023-04-15T03:53:59.150Z,86.28
2023-04-15T03:55:52.599Z,86.46
2023-04-15T03:57:46.573Z,87.07
2023-04-15T03:59:39.419Z,86.84
2023-04-15T04:01:32.403Z,87.47
2023-04-15T04:03:26.018Z,87.64
2023-04-15T04:05:19.184Z,87.99
2023-04-15T04:07:18.534Z,87.77
2023-04-15T04:09:11.532Z,87.97
2023-04-15T04:11:05.197Z,88.19
2023-04-15T04:12:58.172Z,87.91
2023-04-15T04:14:51.602Z,87.90
2023-04-15T04:16:45.019Z,88.45
2023-04-15T04:18:38.013Z,88.34
2023-04-15T04:20:32.190Z,88.89
2023-04-15T04:22:25.649Z,88.95
2023-04-15T04:24:18.597Z,89.10
2023-04-15T04:26:11.545Z,88.85
2023-04-15T04:28:04.598Z,89.44
2023-04-15T04:29:57.751Z,89.45
2023-04-15T04:31:50.717Z,89.58
2023-04-15T04:33:43.746Z,89.59
2023-04-15T04:35:37.836Z,89.16
2023-04-15T04:37:31.074Z,89.61
2023-04-15T04:39:24.029Z,89.88
2023-04-15T04:41:16.870Z,89.70
2023-04-15T04:43:10.234Z,89.60
2023-04-15T04:45:03.544Z,90.04
2023-04-15T04:46:56.953Z,89.98
2023-04-15T04:48:49.989Z,89.89
2023-04-15T04:50:43.387Z,89.52
2023-04-15T04:52:36.909Z,89.78
2023-04-15T04:54:31.292Z,89.89
2023-04-15T04:56:24.142Z,89.90
2023-04-15T04:58:17.085Z,89.87
2023-04-15T05:00:10.654Z,90.08
2023-04-15T05:02:04.010Z,89.74
2023-04-15T05:03:57.191Z,90.12
2023-04-15T05:05:50.209Z,89.89
2023-04-15T05:07:43.168Z,90.70
2023-04-15T05:09:36.932Z,90.93
2023-04-15T05:11:29.978Z,90.74
2023-04-15T05:13:22.927Z,90.86
2023-04-15T05:15:15.873Z,90.71
2023-04-15T05:17:08.993Z,90.93
2023-04-15T05:19:02.182Z,90.91
2023-04-15T05:20:55.436Z,91.26
2023-04-15T05:22:48.282Z,91.21
2023-04-15T05:24:41.245Z,91.32
2023-04-15T05:26:34.100Z,91.40
2023-04-15T05:28:27.439Z,91.09
2023-04-15T05:30:20.793Z,91.16
2023-04-15T05:32:13.635Z,91.41
2023-04-15T05:34:07.303Z,91.62
2023-04-15T05:36:00.151Z,91.51
2023-04-15T05:37:52.996Z,91.31
2023-04-15T05:39:45.840Z,91.46
2023-04-15T05:41:38.789Z,91.47
2023-04-15T05:43:31.766Z,91.55
2023-04-15T05:45:24.687Z,91.78
2023-04-15T05:47:17.700Z,91.76
2023-04-15T05:49:10.802Z,91.59
2023-04-15T05:51:03.836Z,92.31
2023-04-15T05:52:56.990Z,92.37
2023-04-15T05:54:49.836Z,92.14
2023-04-15T05:56:42.891Z,92.49
2023-04-15T05:58:35.943Z,92.50
2023-04-15T06:00:28.900Z,92.58
2023-04-15T06:02:22.278Z,92.49
2023-04-15T06:04:15.579Z,92.36
2023-04-15T06:06:08.845Z,92.45
2023-04-15T06:08:02.113Z,92.27
2023-04-15T06:09:54.958Z,92.54
2023-04-15T06:11:47.918Z,92.40
2023-04-15T06:13:40.858Z,92.40
2023-04-15T06:15:33.907Z,92.73
2023-04-15T06:17:26.829Z,92.71
2023-04-15T06:19:19.696Z,92.38
2023-04-15T06:21:12.959Z,92.57
2023-04-15T06:23:06.434Z,92.65
2023-04-15T06:24:59.374Z,92.45
2023-04-15T06:26:52.207Z,92.59
2023-04-15T06:28:45.050Z,92.67
2023-04-15T06:30:38.611Z,92.80
2023-04-15T06:32:32.604Z,92.71
2023-04-15T06:34:25.733Z,92.66
2023-04-15T06:36:18.689Z,92.66
2023-04-15T06:38:11.537Z,92.58
2023-04-15T06:40:05.366Z,92.52
2023-04-15T06:41:58.349Z,92.95
2023-04-15T06:43:51.605Z,92.80
2023-04-15T06:45:44.848Z,92.84
2023-04-15T06:47:37.869Z,93.19
2023-04-15T06:49:30.754Z,92.94
2023-04-15T06:51:26.557Z,92.77
2023-04-15T06:53:19.621Z,92.88
2023-04-15T06:55:12.780Z,92.87
2023-04-15T06:57:07.251Z,92.78
2023-04-15T06:59:00.339Z,92.95
2023-04-15T07:00:53.544Z,92.89
2023-04-15T07:02:47.003Z,92.90
2023-04-15T07:04:40.613Z,92.63
2023-04-15T07:06:34.049Z,92.77
2023-04-15T07:08:26.893Z,92.79
2023-04-15T07:10:20.529Z,92.70
2023-04-15T07:12:13.407Z,92.83
2023-04-15T07:14:06.966Z,92.81
2023-04-15T07:16:00.436Z,92.67
2023-04-15T07:17:53.523Z,92.86
2023-04-15T07:19:46.606Z,92.58
2023-04-15T07:21:41.687Z,92.68
2023-04-15T07:23:34.983Z,92.66
2023-04-15T07:25:27.831Z,92.62
2023-04-15T07:27:21.069Z,92.85
2023-04-15T07:29:13.936Z,92.90
2023-04-15T07:31:07.082Z,92.81
2023-04-15T07:33:00.492Z,92.86
2023-04-15T07:34:53.798Z,92.79
2023-04-15T07:36:50.576Z,93.13
2023-04-15T07:38:43.688Z,93.00
2023-04-15T07:40:36.514Z,92.78
2023-04-15T07:42:29.486Z,92.91
2023-04-15T07:44:22.333Z,93.16
2023-04-15T07:46:15.646Z,93.32
2023-04-15T07:48:08.639Z,93.20
2023-04-15T07:50:02.510Z,93.44
2023-04-15T07:51:56.713Z,93.31
2023-04-15T07:53:50.479Z,93.41
2023-04-15T07:55:43.297Z,93.37
2023-04-15T07:57:37.382Z,93.41
2023-04-15T07:59:31.242Z,93.44
2023-04-15T08:01:24.090Z,93.33
2023-04-15T08:03:17.512Z,93.71
2023-04-15T08:05:11.007Z,93.75
2023-04-15T08:07:05.188Z,93.59
2023-04-15T08:08:58.189Z,93.50
2023-04-15T08:10:52.651Z,93.48
2023-04-15T08:12:49.359Z,93.63
2023-04-15T08:14:42.318Z,93.57
2023-04-15T08:16:35.248Z,93.41
2023-04-15T08:18:28.197Z,93.99
2023-04-15T08:20:21.073Z,93.58
2023-04-15T08:22:16.026Z,93.77
2023-04-15T08:24:11.851Z,93.74
2023-04-15T08:26:05.112Z,93.77
2023-04-15T08:27:58.274Z,93.72
2023-04-15T08:29:51.525Z,93.93
2023-04-15T08:31:45.091Z,93.61
2023-04-15T08:33:38.129Z,93.78
2023-04-15T08:35:31.692Z,93.67
2023-04-15T08:37:24.536Z,93.53
2023-04-15T08:39:18.306Z,93.59
2023-04-15T08:41:20.268Z,93.54
2023-04-15T08:43:21.551Z,93.47
2023-04-15T08:45:15.071Z,93.73
2023-04-15T08:47:09.147Z,93.59
2023-04-15T08:49:05.489Z,93.42
2023-04-15T08:50:59.239Z,93.69
2023-04-15T08:52:55.917Z,93.72
2023-04-15T08:54:48.926Z,93.56
2023-04-15T08:56:42.803Z,93.46
2023-04-15T08:58:37.281Z,93.71
2023-04-15T09:00:31.490Z,93.37
2023-04-15T09:02:30.859Z,93.50
2023-04-15T09:04:23.875Z,93.53
2023-04-15T09:06:17.992Z,93.78
2023-04-15T09:08:10.897Z,93.57
2023-04-15T09:10:04.837Z,93.22
2023-04-15T09:11:57.804Z,93.25
2023-04-15T09:13:51.793Z,93.42
2023-04-15T09:15:44.989Z,93.41
2023-04-15T09:17:43.727Z,93.00
2023-04-15T09:19:36.668Z,93.12
2023-04-15T09:21:32.011Z,93.19
2023-04-15T09:23:24.860Z,93.04
2023-04-15T09:25:23.432Z,93.17
2023-04-15T09:27:16.997Z,92.94
2023-04-15T09:29:13.551Z,92.90
2023-04-15T09:31:06.492Z,92.62
2023-04-15T09:33:11.089Z,92.64
2023-04-15T09:35:14.232Z,92.87
2023-04-15T09:37:08.020Z,92.82
2023-04-15T09:39:01.139Z,92.65
2023-04-15T09:40:54.665Z,92.58
2023-04-15T09:42:57.251Z,92.69
2023-04-15T09:44:52.236Z,92.46
2023-04-15T09:46:46.522Z,92.36
2023-04-15T09:48:39.573Z,92.04
2023-04-15T09:50:41.439Z,91.50
2023-04-15T09:52:34.578Z,91.54
2023-04-15T09:54:38.496Z,91.48
2023-04-15T09:56:42.262Z,91.39
2023-04-15T09:58:37.273Z,91.01
2023-04-15T10:00:31.599Z,91.00
2023-04-15T10:02:24.688Z,90.41
2023-04-15T10:04:18.399Z,90.10
2023-04-15T10:06:11.792Z,90.34
2023-04-15T10:08:04.923Z,90.06
2023-04-15T10:10:02.388Z,88.39
2023-04-15T10:11:56.130Z,87.26
2023-04-15T10:13:50.673Z,86.15
2023-04-15T10:15:47.506Z,85.92
2023-04-15T10:17:44.076Z,85.46
2023-04-15T10:19:37.724Z,85.26
2023-04-15T10:21:30.864Z,85.54
2023-04-15T10:23:24.640Z,85.20
2023-04-15T10:25:18.529Z,85.32
2023-04-15T10:27:11.795Z,85.36
2023-04-15T10:29:05.451Z,85.71
2023-04-15T10:30:59.864Z,84.66
2023-04-15T10:32:53.733Z,84.61
2023-04-15T10:34:48.610Z,85.58
2023-04-15T10:36:41.745Z,84.53
2023-04-15T10:38:38.734Z,83.92
2023-04-15T10:40:32.879Z,83.30
2023-04-15T10:42:34.481Z,82.75
2023-04-15T10:44:27.263Z,82.69
2023-04-15T10:46:35.350Z,83.09
2023-04-15T10:48:28.214Z,82.89
2023-04-15T10:50:21.463Z,83.40
2023-04-15T10:52:16.357Z,83.26
2023-04-15T10:54:25.427Z,83.16
2023-04-15T10:56:18.845Z,83.17
2023-04-15T10:58:11.769Z,82.93
2023-04-15T11:00:14.745Z,82.36
2023-04-15T11:02:08.325Z,82.68
2023-04-15T11:04:02.060Z,83.03
2023-04-15T11:05:56.002Z,83.71
2023-04-15T11:07:59.363Z,84.18
2023-04-15T11:09:52.403Z,83.81
2023-04-15T11:12:11.149Z,83.02
2023-04-15T11:14:04.822Z,83.30
2023-04-15T11:16:03.386Z,83.44
2023-04-15T11:17:58.044Z,83.31
2023-04-15T11:20:00.482Z,83.74
2023-04-15T11:21:55.227Z,83.82
2023-04-15T11:23:52.237Z,83.86
2023-04-15T11:25:46.401Z,83.68
2023-04-15T11:27:39.903Z,83.14
2023-04-15T11:29:33.403Z,83.14
2023-04-15T11:31:28.746Z,83.43
2023-04-15T11:33:22.686Z,83.54
2023-04-15T11:35:18.917Z,84.06
2023-04-15T11:37:13.623Z,84.47
2023-04-15T11:39:07.724Z,84.82
2023-04-15T11:41:01.334Z,85.13
2023-04-15T11:43:14.396Z,85.17
2023-04-15T11:45:12.423Z,85.16
2023-04-15T11:47:23.364Z,85.25
2023-04-15T11:49:31.318Z,85.77
2023-04-15T11:51:24.239Z,85.92
2023-04-15T11:53:17.289Z,85.90
2023-04-15T11:55:10.799Z,86.53
2023-04-15T11:57:04.213Z,86.18
2023-04-15T11:58:59.951Z,86.39
2023-04-15T12:01:06.828Z,86.47
2023-04-15T12:03:13.295Z,86.64
2023-04-15T12:05:07.562Z,86.60
2023-04-15T12:07:06.113Z,86.65
2023-04-15T12:09:13.814Z,86.65
2023-04-15T12:11:09.018Z,86.04
2023-04-15T12:13:07.710Z,86.12
2023-04-15T12:15:04.644Z,86.58
2023-04-15T12:17:01.589Z,86.84
2023-04-15T12:18:57.084Z,85.81
2023-04-15T12:20:51.998Z,85.50
2023-04-15T12:22:46.440Z,85.80
2023-04-15T12:24:44.351Z,86.01
2023-04-15T12:26:48.456Z,86.30
2023-04-15T12:28:42.615Z,86.27
2023-04-15T12:30:35.519Z,85.85
2023-04-15T12:32:31.089Z,85.99
2023-04-15T12:34:33.570Z,85.94
2023-04-15T12:36:28.547Z,85.72
2023-04-15T12:38:21.490Z,85.94
2023-04-15T12:40:14.267Z,86.27
2023-04-15T12:42:08.616Z,86.61
2023-04-15T12:44:02.104Z,87.03
2023-04-15T12:46:01.847Z,86.63
2023-04-15T12:47:55.689Z,86.96
2023-04-15T12:49:53.059Z,86.95
2023-04-15T12:51:49.726Z,86.80
2023-04-15T12:53:47.875Z,86.79
2023-04-15T12:55:49.162Z,86.57
2023-04-15T12:57:46.215Z,86.88
2023-04-15T12:59:39.357Z,86.76
2023-04-15T13:01:32.255Z,87.40
2023-04-15T13:03:25.395Z,87.99
2023-04-15T13:05:20.977Z,88.34
2023-04-15T13:07:15.868Z,87.73
2023-04-15T13:09:09.009Z,87.52
2023-04-15T13:11:01.957Z,87.71
2023-04-15T13:12:56.901Z,87.92
2023-04-15T13:14:49.878Z,88.16
2023-04-15T13:16:44.499Z,87.89
2023-04-15T13:18:37.651Z,87.68
2023-04-15T13:20:30.724Z,87.45
2023-04-15T13:22:23.647Z,87.25
2023-04-15T13:24:21.503Z,87.15
2023-04-15T13:26:15.167Z,87.49
2023-04-15T13:28:08.017Z,87.58
2023-04-15T13:30:01.276Z,86.88
2023-04-15T13:31:54.743Z,87.14
2023-04-15T13:33:48.188Z,87.12
2023-04-15T13:35:41.133Z,87.22
2023-04-15T13:37:33.982Z,87.06
2023-04-15T13:39:26.829Z,87.14
2023-04-15T13:41:21.358Z,87.13
2023-04-15T13:43:14.261Z,86.74
2023-04-15T13:45:07.866Z,86.91
2023-04-15T13:47:01.197Z,86.56
2023-04-15T13:48:54.131Z,87.03
2023-04-15T13:50:46.941Z,87.51
2023-04-15T13:52:39.822Z,87.16
2023-04-15T13:54:37.800Z,86.88
2023-04-15T13:56:32.259Z,86.81
2023-04-15T13:58:26.140Z,87.07
2023-04-15T14:00:19.088Z,88.27
2023-04-15T14:02:12.618Z,88.86
2023-04-15T14:04:06.422Z,88.76
2023-04-15T14:05:59.679Z,88.35
2023-04-15T14:07:53.869Z,87.78
2023-04-15T14:09:48.352Z,87.15
2023-04-15T14:11:41.287Z,87.17
2023-04-15T14:13:34.949Z,87.04
2023-04-15T14:15:27.903Z,86.61
2023-04-15T14:17:21.281Z,86.04
2023-04-15T14:19:15.224Z,85.72
2023-04-15T14:21:08.068Z,85.11
2023-04-15T14:23:01.060Z,85.18
2023-04-15T14:24:55.714Z,84.68
2023-04-15T14:26:48.657Z,84.79
2023-04-15T14:28:43.140Z,84.86
2023-04-15T14:30:36.246Z,85.23
2023-04-15T14:32:29.385Z,85.00
2023-04-15T14:34:25.259Z,84.63
2023-04-15T14:36:18.211Z,84.87
2023-04-15T14:38:11.697Z,84.94
2023-04-15T14:40:05.226Z,85.01
2023-04-15T14:41:58.089Z,84.48
2023-04-15T14:43:50.919Z,84.69
2023-04-15T14:45:45.420Z,84.72
2023-04-15T14:47:38.698Z,84.70
2023-04-15T14:49:32.329Z,84.83
2023-04-15T14:51:25.379Z,84.89
2023-04-15T14:53:18.634Z,84.98
2023-04-15T14:55:12.871Z,85.35
2023-04-15T14:57:06.069Z,85.89
2023-04-15T14:58:59.018Z,85.36
2023-04-15T15:00:51.880Z,85.35
2023-04-15T15:02:47.745Z,85.55
2023-04-15T15:04:42.317Z,85.63
2023-04-15T15:06:35.938Z,85.81
2023-04-15T15:08:28.977Z,85.95
2023-04-15T15:10:34.984Z,85.87
2023-04-15T15:12:35.662Z,85.51
2023-04-15T15:14:29.945Z,85.54
2023-04-15T15:16:22.837Z,85.60
2023-04-15T15:18:17.932Z,86.01
2023-04-15T15:20:11.160Z,86.24
2023-04-15T15:22:04.599Z,85.74
2023-04-15T15:23:57.560Z,85.47
2023-04-15T15:25:50.600Z,85.07
2023-04-15T15:27:43.648Z,85.35
2023-04-15T15:29:37.823Z,85.65
2023-04-15T15:31:31.026Z,85.50
2023-04-15T15:33:27.650Z,85.24
2023-04-15T15:35:23.455Z,85.71
2023-04-15T15:37:18.054Z,85.71
2023-04-15T15:39:11.073Z,85.19
2023-04-15T15:41:04.575Z,85.65
2023-04-15T15:42:57.478Z,86.11
2023-04-15T15:44:50.421Z,86.73
2023-04-15T15:46:43.221Z,87.16
2023-04-15T15:48:36.319Z,87.23
2023-04-15T15:51:30.742Z,87.55
2023-04-15T15:54:03.371Z,87.78
2023-04-15T15:55:57.317Z,88.17
2023-04-15T15:57:51.619Z,88.35
2023-04-15T15:59:47.494Z,88.40
2023-04-15T16:01:40.620Z,88.69
2023-04-15T16:03:33.692Z,88.60
2023-04-15T16:05:26.706Z,88.41
2023-04-15T16:07:19.940Z,88.67
2023-04-15T16:09:14.216Z,88.77
2023-04-15T16:11:07.966Z,88.92
2023-04-15T16:13:02.354Z,88.97
2023-04-15T16:14:55.543Z,89.04
2023-04-15T16:16:48.540Z,89.09
2023-04-15T16:18:41.856Z,89.16
2023-04-15T16:20:34.696Z,89.19
2023-04-15T16:22:27.655Z,89.14
2023-04-15T16:24:20.695Z,89.09
2023-04-15T16:26:13.565Z,89.16
2023-04-15T16:28:18.542Z,89.35
2023-04-15T16:30:19.034Z,89.60
2023-04-15T16:32:12.978Z,89.86
2023-04-15T16:34:07.190Z,89.92
2023-04-15T16:36:00.242Z,89.91
2023-04-15T16:37:53.144Z,90.08
2023-04-15T16:39:46.193Z,89.88
2023-04-15T16:41:39.963Z,89.98
2023-04-15T16:43:32.913Z,90.04
2023-04-15T16:45:25.965Z,90.06
2023-04-15T16:47:18.810Z,90.08
2023-04-15T16:49:12.202Z,90.28
2023-04-15T16:51:05.727Z,90.57
2023-04-15T16:52:58.884Z,90.83
2023-04-15T16:54:52.261Z,90.56
2023-04-15T16:56:45.599Z,90.62
2023-04-15T16:58:38.546Z,90.70
2023-04-15T17:00:33.021Z,90.74
2023-04-15T17:02:26.589Z,90.65
2023-04-15T17:04:23.260Z,90.80
2023-04-15T17:06:16.579Z,90.87
2023-04-15T17:08:11.081Z,91.15
2023-04-15T17:10:05.351Z,91.02
2023-04-15T17:11:59.216Z,91.08
2023-04-15T17:13:52.419Z,91.31
2023-04-15T17:15:45.361Z,91.32
2023-04-15T17:17:38.413Z,91.36
2023-04-15T17:19:31.414Z,91.39
2023-04-15T17:21:26.103Z,91.47
2023-04-15T17:23:19.051Z,91.69
2023-04-15T17:25:13.950Z,91.49
2023-04-15T17:27:06.994Z,91.44
2023-04-15T17:29:00.047Z,91.47
2023-04-15T17:30:53.193Z,91.53
2023-04-15T17:32:46.194Z,91.44
2023-04-15T17:34:50.099Z,91.67
2023-04-15T17:36:44.649Z,91.88
2023-04-15T17:38:37.705Z,91.69
2023-04-15T17:40:31.457Z,91.79
2023-04-15T17:42:24.384Z,91.87
2023-04-15T17:44:17.255Z,91.86
2023-04-15T17:46:12.218Z,91.96
2023-04-15T17:48:05.464Z,91.90
2023-04-15T17:49:58.561Z,91.94
2023-04-15T17:51:55.085Z,92.21
2023-04-15T17:53:48.340Z,92.08
2023-04-15T17:55:41.189Z,91.91
2023-04-15T17:57:34.134Z,92.05
2023-04-15T17:59:28.004Z,92.10
2023-04-15T18:01:22.460Z,92.14
2023-04-15T18:03:15.703Z,92.05
2023-04-15T18:05:09.605Z,92.26
2023-04-15T18:07:02.680Z,92.19
2023-04-15T18:08:56.337Z,92.12
2023-04-15T18:10:49.280Z,92.33
2023-04-15T18:12:42.634Z,92.48
2023-04-15T18:14:39.492Z,92.31
2023-04-15T18:16:33.032Z,92.38
2023-04-15T18:18:26.599Z,92.49
2023-04-15T18:20:19.758Z,92.53
2023-04-15T18:22:13.115Z,92.56
2023-04-15T18:24:07.161Z,92.59
2023-04-15T18:26:00.779Z,92.69
2023-04-15T18:27:55.045Z,93.06
2023-04-15T18:29:48.384Z,93.07
2023-04-15T18:31:42.183Z,93.13
2023-04-15T18:33:36.022Z,93.20
2023-04-15T18:35:29.997Z,93.21
2023-04-15T18:37:23.361Z,93.40
2023-04-15T18:39:17.126Z,93.43
2023-04-15T18:41:10.238Z,93.46
2023-04-15T18:43:03.532Z,93.61
2023-04-15T18:44:56.694Z,93.74
2023-04-15T18:46:50.144Z,93.84
2023-04-15T18:48:43.092Z,93.92
2023-04-15T18:50:36.157Z,94.07
2023-04-15T18:52:30.030Z,94.62
2023-04-15T18:54:23.588Z,94.41
2023-04-15T18:56:17.457Z,94.50
2023-04-15T18:58:11.123Z,94.60
2023-04-15T19:00:05.049Z,95.23
2023-04-15T19:01:59.719Z,94.40
2023-04-15T19:03:53.050Z,94.65
2023-04-15T19:05:46.279Z,94.28
2023-04-15T19:07:39.743Z,94.61
2023-04-15T19:09:34.147Z,94.86
2023-04-15T19:11:27.281Z,94.46
2023-04-15T19:13:20.737Z,94.56
2023-04-15T19:15:13.683Z,94.83
2023-04-15T19:17:07.243Z,94.65
2023-04-15T19:19:00.499Z,94.65
2023-04-15T19:20:55.904Z,94.52
2023-04-15T19:22:49.165Z,94.54
2023-04-15T19:24:42.318Z,94.59
2023-04-15T19:26:36.997Z,94.65
2023-04-15T19:28:30.573Z,94.66
2023-04-15T19:30:23.435Z,94.73
2023-04-15T19:32:16.695Z,94.49
2023-04-15T19:34:10.332Z,94.36
2023-04-15T19:36:06.930Z,94.63
2023-04-15T19:38:01.052Z,94.73
2023-04-15T19:39:55.427Z,94.75
2023-04-15T19:41:48.588Z,94.64
2023-04-15T19:43:42.138Z,94.70
2023-04-15T19:45:35.603Z,94.62
2023-04-15T19:47:28.921Z,94.63
2023-04-15T19:49:22.319Z,94.73
2023-04-15T19:51:15.673Z,94.52
2023-04-15T19:53:08.624Z,94.44
2023-04-15T19:55:01.774Z,94.24
2023-04-15T19:56:54.723Z,94.17
2023-04-15T19:58:52.823Z,94.12
2023-04-15T20:00:46.060Z,94.31
2023-04-15T20:02:39.235Z,94.44
2023-04-15T20:04:32.478Z,94.30
2023-04-15T20:06:27.653Z,94.18
2023-04-15T20:08:20.811Z,93.78
2023-04-15T20:10:13.693Z,93.66
2023-04-15T20:12:49.389Z,93.52
2023-04-15T20:14:19.563Z,93.56
2023-04-15T20:16:13.449Z,93.62
2023-04-15T20:18:06.380Z,93.46
2023-04-15T20:19:59.254Z,93.56
2023-04-15T20:21:54.052Z,93.73
2023-04-15T20:23:46.958Z,93.70
2023-04-15T20:25:39.806Z,93.80
2023-04-15T20:27:32.669Z,93.68
2023-04-15T20:29:25.506Z,93.62
2023-04-15T20:31:18.370Z,93.48
2023-04-15T20:33:11.681Z,93.54
2023-04-15T20:35:05.692Z,93.45
2023-04-15T20:36:58.618Z,93.53
2023-04-15T20:38:51.464Z,93.49
2023-04-15T20:40:44.414Z,93.50
2023-04-15T20:42:40.246Z,93.43
2023-04-15T20:44:34.617Z,93.47
2023-04-15T20:46:28.055Z,93.23
2023-04-15T20:48:21.329Z,93.11
2023-04-15T20:50:14.173Z,93.21
2023-04-15T20:52:08.555Z,93.17
2023-04-15T20:54:02.066Z,93.15
2023-04-15T20:55:54.837Z,93.09
2023-04-15T20:57:48.848Z,93.67
2023-04-15T20:59:41.690Z,93.88
2023-04-15T21:01:34.661Z,94.30
2023-04-15T21:03:27.991Z,94.40
2023-04-15T21:05:21.244Z,94.18
2023-04-15T21:07:14.071Z,94.22
2023-04-15T21:09:07.349Z,93.95
2023-04-15T21:11:00.426Z,93.43
2023-04-15T21:12:53.223Z,93.23
2023-04-15T21:14:46.042Z,93.56
2023-04-15T21:16:38.865Z,93.57
2023-04-15T21:18:31.654Z,93.24
2023-04-15T21:20:24.550Z,93.25
2023-04-15T21:22:17.478Z,92.93
2023-04-15T21:24:10.423Z,93.01
2023-04-15T21:26:03.468Z,92.70
2023-04-15T21:27:56.515Z,92.63
2023-04-15T21:29:49.362Z,92.52
2023-04-15T21:31:42.411Z,92.50
2023-04-15T21:33:35.667Z,92.16
2023-04-15T21:35:30.358Z,92.09
2023-04-15T21:37:23.410Z,91.63
2023-04-15T21:39:17.212Z,91.38
2023-04-15T21:41:10.432Z,91.24
2023-04-15T21:43:03.479Z,91.56
2023-04-15T21:44:56.528Z,91.53
2023-04-15T21:46:49.396Z,91.40
2023-04-15T21:48:42.350Z,91.35
2023-04-15T21:50:38.039Z,91.48
2023-04-15T21:52:30.809Z,91.52
2023-04-15T21:54:23.729Z,91.65
2023-04-15T21:56:16.883Z,91.50
2023-04-15T21:58:09.885Z,91.56
2023-04-15T22:00:05.105Z,91.65
2023-04-15T22:02:00.953Z,91.74
2023-04-15T22:03:54.186Z,91.67
2023-04-15T22:05:47.267Z,91.90
2023-04-15T22:07:40.202Z,92.04
2023-04-15T22:09:33.355Z,91.95
2023-04-15T22:11:27.647Z,91.80
2023-04-15T22:13:21.504Z,91.96
2023-04-15T22:15:15.471Z,92.09
2023-04-15T22:17:08.259Z,92.03
2023-04-15T22:19:02.907Z,92.12
2023-04-15T22:20:56.573Z,92.15
2023-04-15T22:22:49.522Z,92.18
2023-04-15T22:24:47.283Z,92.47
2023-04-15T22:26:40.142Z,92.31
2023-04-15T22:28:33.076Z,92.49
2023-04-15T22:30:26.230Z,92.67
2023-04-15T22:32:19.073Z,92.59
2023-04-15T22:34:14.825Z,92.50
2023-04-15T22:36:07.944Z,92.55
2023-04-15T22:38:00.892Z,92.70
2023-04-15T22:39:53.732Z,92.69
2023-04-15T22:41:47.296Z,92.77
2023-04-15T22:43:40.137Z,92.67
2023-04-15T22:45:33.088Z,92.88
2023-04-15T22:47:25.988Z,93.07
2023-04-15T22:49:18.907Z,92.88
2023-04-15T22:51:11.832Z,92.95
2023-04-15T22:53:04.676Z,93.01
2023-04-15T22:54:57.729Z,93.10
2023-04-15T22:56:50.534Z,93.05
2023-04-15T22:58:43.419Z,92.86
2023-04-15T23:00:36.274Z,92.81
2023-04-15T23:02:29.346Z,93.02
2023-04-15T23:04:22.699Z,92.96
2023-04-15T23:06:16.436Z,92.63
2023-04-15T23:08:09.285Z,92.84
2023-04-15T23:10:02.234Z,92.79
2023-04-15T23:11:57.032Z,92.73
2023-04-15T23:13:50.896Z,92.72
2023-04-15T23:15:43.770Z,92.77
2023-04-15T23:17:36.746Z,92.92
2023-04-15T23:19:29.743Z,92.71
2023-04-15T23:21:24.255Z,92.76
2023-04-15T23:23:18.885Z,92.87
2023-04-15T23:25:11.765Z,92.86
2023-04-15T23:27:04.708Z,92.99
2023-04-15T23:28:57.672Z,92.83
2023-04-15T23:30:50.601Z,92.99
2023-04-15T23:32:43.596Z,93.04
2023-04-15T23:34:37.635Z,93.09
2023-04-15T23:36:30.569Z,93.26
2023-04-15T23:38:23.417Z,93.21
2023-04-15T23:40:16.598Z,93.30
2023-04-15T23:42:10.344Z,93.17
2023-04-15T23:44:03.498Z,93.19
2023-04-15T23:45:56.363Z,93.33
2023-04-15T23:47:49.266Z,93.17
2023-04-15T23:49:42.457Z,93.28
2023-04-15T23:51:35.384Z,93.37
2023-04-15T23:53:29.873Z,93.43
2023-04-15T23:55:22.821Z,93.58
2023-04-15T23:57:15.686Z,93.57
2023-04-15T23:59:09.366Z,93.53
